Time;durP1;ratioP1;P1;durP2;ratioP2;P2;SDS_P1;SDS_P2;PMS_P1;PMS_P2;Temp;Humidity;BMP_temperature;BMP_pressure;BME280_temperature;BME280_humidity;BME280_pressure;Samples;Min_cycle;Max_cycle;Signal;HPM_P1;HPM_P2
2023/04/03 00:02:02;;;;;;;6.97;6.50;;;;;;;8.73;100.00;64742.59;5092299;28;20224;-61
2023/04/03 00:04:29;;;;;;;6.93;6.53;;;;;;;8.72;100.00;67340.84;5092125;28;20346;-62
2023/04/03 00:06:58;;;;;;;6.60;6.10;;;;;;;8.80;100.00;63450.75;5092104;28;20275;-63
2023/04/03 00:09:25;;;;;;;7.17;6.53;;;;;;;8.74;100.00;62145.69;5092394;28;20686;-61
2023/04/03 00:11:53;;;;;;;7.00;6.60;;;;;;;8.81;100.00;59882.31;5092027;28;20304;-64
2023/04/03 00:14:20;;;;;;;7.40;6.80;;;;;;;8.78;100.00;56960.69;5092411;28;20274;-62
2023/04/03 00:16:47;;;;;;;6.67;6.33;;;;;;;8.68;100.00;54360.00;5092391;28;20287;-63
2023/04/03 00:19:14;;;;;;;9.27;6.63;;;;;;;8.72;100.00;49510.16;5092372;28;20208;-61
2023/04/03 00:21:41;;;;;;;13.10;6.17;;;;;;;8.77;100.00;46605.00;5091994;28;20309;-63
2023/04/03 00:24:10;;;;;;;6.10;5.80;;;;;;;8.65;100.00;44980.84;5091892;28;20286;-62
2023/04/03 00:26:37;;;;;;;5.67;5.37;;;;;;;8.87;100.00;46290.03;5091648;28;20204;-62
2023/04/03 00:29:06;;;;;;;5.17;4.83;;;;;;;8.94;100.00;41774.69;5091830;28;20203;-62
2023/04/03 00:31:33;;;;;;;6.00;5.33;;;;;;;8.88;100.00;43061.22;5091758;28;20199;-63
2023/04/03 00:34:00;;;;;;;6.43;5.93;;;;;;;8.96;100.00;51471.84;5092031;28;20180;-62
2023/04/03 00:36:27;;;;;;;6.50;5.70;;;;;;;8.77;100.00;54368.03;5092114;28;20260;-62
2023/04/03 00:38:55;;;;;;;8.23;6.13;;;;;;;8.50;100.00;56286.13;5091683;28;20215;-62
2023/04/03 00:41:24;;;;;;;9.20;5.87;;;;;;;8.71;100.00;55334.38;5091717;28;20196;-63
2023/04/03 00:43:51;;;;;;;9.10;6.00;;;;;;;8.86;100.00;52757.53;5092083;28;20184;-62
2023/04/03 00:46:18;;;;;;;7.43;6.83;;;;;;;8.89;100.00;54055.50;5091668;28;20188;-63
2023/04/03 00:48:46;;;;;;;7.80;6.80;;;;;;;8.90;100.00;63461.72;5092046;28;20245;-63
2023/04/03 00:51:17;;;;;;;10.63;6.67;;;;;;;8.92;100.00;66388.19;5091568;28;20254;-62
2023/04/03 00:53:48;;;;;;;7.00;6.37;;;;;;;8.81;100.00;63127.16;5091623;28;20279;-62
2023/04/03 00:56:19;;;;;;;8.80;6.87;;;;;;;8.74;100.00;61497.16;5091704;28;20275;-62
2023/04/03 00:58:52;;;;;;;7.37;6.80;;;;;;;8.75;100.00;61173.19;5091626;28;20184;-63
2023/04/03 01:01:23;;;;;;;6.73;6.20;;;;;;;8.69;100.00;64738.69;5091973;28;20176;-62
2023/04/03 01:03:51;;;;;;;8.27;7.07;;;;;;;8.46;100.00;62440.53;5091576;28;20264;-62
2023/04/03 01:06:24;;;;;;;10.10;8.13;;;;;;;8.56;100.00;61802.41;5091453;28;20196;-62
2023/04/03 01:08:52;;;;;;;8.50;7.80;;;;;;;8.54;100.00;60179.06;5091513;28;20184;-63
2023/04/03 01:11:21;;;;;;;9.20;7.13;;;;;;;8.64;100.00;57595.91;5091390;28;20573;-62
2023/04/03 01:13:50;;;;;;;8.07;7.23;;;;;;;8.61;100.00;55001.41;5091686;28;20184;-62
2023/04/03 01:16:17;;;;;;;8.13;7.63;;;;;;;8.64;100.00;54032.47;5091794;28;20539;-63
2023/04/03 01:18:45;;;;;;;12.17;7.47;;;;;;;8.59;100.00;50792.69;5091833;28;20192;-62
2023/04/03 01:21:46;;;;;;;10.07;7.53;;;;;;;8.47;100.00;47550.22;5091654;28;20748;-63
2023/04/03 01:24:36;;;;;;;8.77;8.07;;;;;;;8.61;100.00;47238.41;5091700;28;20634;-62
2023/04/03 01:27:05;;;;;;;8.93;8.03;;;;;;;8.55;100.00;46910.81;5088973;28;20658;-62
2023/04/03 01:29:34;;;;;;;9.77;8.73;;;;;;;8.74;100.00;45956.47;5091598;28;20562;-62
2023/04/03 01:32:04;;;;;;;10.13;9.17;;;;;;;8.80;100.00;44346.84;5091636;28;20678;-62
2023/04/03 01:34:32;;;;;;;9.47;8.50;;;;;;;8.65;100.00;44981.22;5091714;28;20184;-61
2023/04/03 01:36:59;;;;;;;9.10;8.30;;;;;;;8.41;100.00;41736.31;5091742;28;20643;-62
2023/04/03 01:39:26;;;;;;;9.63;8.63;;;;;;;8.55;100.00;41101.69;5094188;28;20597;-62
2023/04/03 01:41:54;;;;;;;13.77;9.73;;;;;;;8.54;100.00;43358.84;5095416;28;20184;-62
2023/04/03 01:44:21;;;;;;;9.80;8.97;;;;;;;8.41;100.00;46899.28;5095520;28;20192;-62
2023/04/03 01:46:48;;;;;;;11.53;9.23;;;;;;;8.52;100.00;47554.38;5096093;28;20622;-62
2023/04/03 01:49:17;;;;;;;9.33;8.53;;;;;;;8.44;100.00;49809.56;5096457;28;20184;-66
2023/04/03 01:51:44;;;;;;;9.80;8.90;;;;;;;8.32;100.00;45600.19;5096418;28;20230;-62
2023/04/03 01:54:11;;;;;;;9.73;8.87;;;;;;;8.23;100.00;41078.78;5096634;28;20194;-63
2023/04/03 01:56:38;;;;;;;9.53;8.57;;;;;;;8.19;100.00;38820.44;5096533;28;20271;-63
2023/04/03 01:59:05;;;;;;;12.50;9.63;;;;;;;8.09;100.00;38491.59;5096753;28;20192;-63
2023/04/03 02:01:33;;;;;;;18.20;10.13;;;;;;;8.26;100.00;34640.84;5095576;28;20180;-63
2023/04/03 02:04:00;;;;;;;22.20;13.90;;;;;;;8.38;100.00;31432.16;5095717;28;20180;-62
2023/04/03 02:06:28;;;;;;;24.30;15.60;;;;;;;8.44;100.00;22446.97;5095354;28;20208;-63
2023/04/03 02:08:55;;;;;;;25.93;15.97;;;;;;;8.33;100.00;22442.34;5095429;28;20211;-62
2023/04/03 02:11:22;;;;;;;21.23;15.03;;;;;;;8.57;100.00;23790.25;5094807;28;20319;-64
2023/04/03 02:13:50;;;;;;;15.07;13.43;;;;;;;8.49;100.00;26802.88;5093343;28;20216;-62
2023/04/03 02:16:17;;;;;;;13.70;12.53;;;;;;;8.47;100.00;30249.50;5094476;28;20643;-62
2023/04/03 02:18:44;;;;;;;27.83;15.33;;;;;;;8.56;100.00;31985.28;5094718;28;20619;-63
2023/04/03 02:21:11;;;;;;;23.53;15.23;;;;;;;8.58;100.00;32499.00;5094440;28;20257;-62
2023/04/03 02:23:39;;;;;;;23.87;16.67;;;;;;;8.60;100.00;32942.16;5094346;28;20279;-61
2023/04/03 02:26:09;;;;;;;30.57;19.50;;;;;;;8.67;100.00;33034.28;5094490;28;20261;-63
2023/04/03 02:28:36;;;;;;;42.17;23.20;;;;;;;8.68;100.00;32472.19;5094166;28;20188;-63
2023/04/03 02:31:06;;;;;;;31.03;22.70;;;;;;;8.67;100.00;30675.16;5093755;28;20295;-63
2023/04/03 02:33:33;;;;;;;43.43;25.57;;;;;;;8.43;100.00;30152.19;5094110;28;20184;-63
2023/04/03 02:36:00;;;;;;;44.60;25.23;;;;;;;8.55;100.00;31348.84;5094312;28;20710;-63
2023/04/03 02:38:28;;;;;;;37.83;24.33;;;;;;;8.55;100.00;29842.13;5093725;28;20275;-63
2023/04/03 02:41:01;;;;;;;39.37;25.10;;;;;;;8.72;100.00;28344.81;5094150;28;20184;-63
2023/04/03 02:43:28;;;;;;;46.20;25.03;;;;;;;8.70;100.00;28113.13;5093780;28;20180;-62
2023/04/03 02:45:55;;;;;;;32.57;23.80;;;;;;;8.58;100.00;29424.72;5093772;28;20275;-63
2023/04/03 02:48:22;;;;;;;33.13;22.87;;;;;;;8.73;100.00;30811.06;5093866;28;20657;-63
2023/04/03 02:50:49;;;;;;;34.97;22.07;;;;;;;8.82;100.00;31401.56;5092824;28;20274;-63
2023/04/03 02:53:16;;;;;;;31.40;23.63;;;;;;;8.86;100.00;30567.34;5093481;28;20224;-62
2023/04/03 02:55:43;;;;;;;32.80;24.50;;;;;;;8.87;100.00;29879.25;5093338;28;20283;-62
2023/04/03 02:58:12;;;;;;;42.43;24.13;;;;;;;8.93;100.00;29749.34;5093690;28;20657;-63
2023/04/03 03:00:40;;;;;;;27.57;22.23;;;;;;;8.95;100.00;30773.34;5093796;28;20603;-63
2023/04/03 03:03:07;;;;;;;34.57;20.57;;;;;;;8.81;100.00;32597.34;5093724;28;20642;-62
2023/04/03 03:05:36;;;;;;;27.37;18.53;;;;;;;8.86;100.00;33002.81;5093260;28;20187;-62
2023/04/03 03:08:03;;;;;;;27.10;19.80;;;;;;;8.89;100.00;34083.16;5093545;28;20190;-62
2023/04/03 03:10:30;;;;;;;23.40;18.13;;;;;;;8.85;100.00;35487.25;5093317;28;20742;-63
2023/04/03 03:12:57;;;;;;;23.87;16.83;;;;;;;8.85;100.00;36393.19;5093065;28;20250;-62
2023/04/03 03:15:26;;;;;;;22.23;13.77;;;;;;;8.54;100.00;37233.50;5093305;28;20215;-63
2023/04/03 03:17:53;;;;;;;18.90;14.87;;;;;;;8.66;100.00;39175.19;5093152;28;20286;-63
2023/04/03 03:20:21;;;;;;;11.17;10.30;;;;;;;8.80;100.00;39184.22;5093289;28;20966;-62
2023/04/03 03:22:48;;;;;;;11.53;10.30;;;;;;;8.70;100.00;39499.97;5093003;28;20246;-63
2023/04/03 03:25:15;;;;;;;11.10;10.10;;;;;;;8.68;100.00;39176.56;5092887;28;20184;-63
2023/04/03 03:27:42;;;;;;;10.40;9.27;;;;;;;8.57;100.00;40457.91;5092768;28;20558;-64
2023/04/03 03:30:10;;;;;;;10.60;9.30;;;;;;;8.60;100.00;42072.88;5092975;28;20618;-64
2023/04/03 03:32:38;;;;;;;24.47;13.63;;;;;;;8.55;100.00;42069.19;5092701;28;20208;-62
2023/04/03 03:35:06;;;;;;;13.20;11.80;;;;;;;8.49;100.00;38841.16;5092681;28;20219;-63
2023/04/03 03:37:33;;;;;;;21.50;13.67;;;;;;;8.59;100.00;33695.63;5092933;28;20690;-65
2023/04/03 03:40:00;;;;;;;23.07;16.80;;;;;;;8.54;100.00;33692.59;5092557;28;20230;-62
2023/04/03 03:42:27;;;;;;;19.60;17.27;;;;;;;8.52;100.00;32083.47;5092668;28;20202;-62
2023/04/03 03:44:54;;;;;;;20.40;18.20;;;;;;;8.55;100.00;33050.09;5092587;28;20283;-62
2023/04/03 03:47:22;;;;;;;26.27;17.93;;;;;;;8.55;100.00;34014.94;5092723;28;20195;-62
2023/04/03 03:49:50;;;;;;;38.77;18.57;;;;;;;8.51;100.00;34978.19;5092268;28;20275;-63
2023/04/03 03:52:17;;;;;;;31.20;19.67;;;;;;;8.49;100.00;35298.78;5092534;28;20690;-62
2023/04/03 03:54:44;;;;;;;32.53;19.40;;;;;;;8.55;100.00;35624.50;5092207;28;20283;-61
2023/04/03 03:57:11;;;;;;;27.83;18.57;;;;;;;8.51;100.00;35300.06;5092284;28;20270;-63
2023/04/03 03:59:40;;;;;;;23.17;17.00;;;;;;;8.52;100.00;34978.84;5092134;28;20358;-62
2023/04/03 04:02:07;;;;;;;31.70;19.20;;;;;;;8.65;100.00;34986.97;5091651;28;20578;-62
2023/04/03 04:04:34;;;;;;;35.77;19.03;;;;;;;8.73;100.00;37245.78;5092008;28;20235;-62
2023/04/03 04:07:03;;;;;;;32.60;20.53;;;;;;;8.60;100.00;37882.09;5092343;28;20614;-63
2023/04/03 04:09:30;;;;;;;23.80;19.20;;;;;;;8.99;100.00;40165.03;5091860;28;20270;-62
2023/04/03 04:11:57;;;;;;;21.10;18.00;;;;;;;9.14;100.00;42758.03;5091815;28;20643;-63
2023/04/03 04:14:24;;;;;;;19.90;17.90;;;;;;;9.21;100.00;46640.56;5091845;28;20180;-62
2023/04/03 04:16:51;;;;;;;21.97;17.47;;;;;;;9.41;100.00;52484.13;5092102;28;20318;-62
2023/04/03 04:19:19;;;;;;;16.33;14.63;;;;;;;9.50;100.00;58979.34;5092301;28;20682;-62
2023/04/03 04:21:46;;;;;;;18.90;14.00;;;;;;;9.64;100.00;68098.38;5092125;28;20263;-63
2023/04/03 04:24:14;;;;;;;15.10;13.87;;;;;;;9.88;100.00;79544.88;5092124;28;20184;-62
2023/04/03 04:26:41;;;;;;;17.90;14.00;;;;;;;9.93;100.00;85768.03;5092046;28;20657;-62
2023/04/03 04:29:10;;;;;;;14.30;13.10;;;;;;;10.25;100.00;111132.38;5092094;28;20223;-62
2023/04/03 04:31:37;;;;;;;13.30;12.10;;;;;;;10.27;100.00;135569.69;5091706;28;20291;-62
2023/04/03 04:34:04;;;;;;;14.27;11.73;;;;;;;9.41;100.00;137098.09;5091975;28;20183;-63
2023/04/03 04:36:31;;;;;;;11.67;10.53;;;;;;;10.71;100.00;141810.78;5091970;28;20673;-62
2023/04/03 04:38:59;;;;;;;11.50;10.50;;;;;;;10.95;100.00;148794.41;5091920;28;20650;-62
2023/04/03 04:41:27;;;;;;;11.17;9.73;;;;;;;11.19;100.00;148852.59;5091633;28;20656;-64
2023/04/03 04:43:54;;;;;;;9.57;8.90;;;;;;;11.43;100.00;148913.28;5091862;28;20682;-62
2023/04/03 04:46:22;;;;;;;9.87;8.30;;;;;;;11.73;100.00;148987.97;5091579;28;20180;-61
2023/04/03 04:48:49;;;;;;;14.73;8.83;;;;;;;11.92;100.00;149036.06;5091528;28;20238;-62
2023/04/03 04:51:16;;;;;;;14.60;8.33;;;;;;;11.99;100.00;149053.78;5090545;28;20184;-61
2023/04/03 04:53:43;;;;;;;9.00;7.47;;;;;;;12.28;100.00;149127.19;5091311;28;20238;-62
2023/04/03 04:56:11;;;;;;;8.77;6.80;;;;;;;12.57;100.00;149198.06;5091448;28;20184;-62
2023/04/03 04:58:40;;;;;;;7.97;7.43;;;;;;;12.97;100.00;149298.09;5091947;28;20188;-63
2023/04/03 05:01:08;;;;;;;7.20;6.33;;;;;;;13.28;100.00;149377.94;5091419;28;20181;-63
2023/04/03 05:03:36;;;;;;;7.67;5.50;;;;;;;13.49;100.00;149428.63;5091634;28;20642;-63
2023/04/03 05:06:04;;;;;;;5.53;4.63;;;;;;;13.52;100.00;149437.50;5091196;28;20192;-62
2023/04/03 05:08:31;;;;;;;5.80;4.60;;;;;;;13.79;100.00;149503.41;5091315;28;20191;-63
2023/04/03 05:10:59;;;;;;;4.50;3.93;;;;;;;14.06;100.00;149573.09;5091172;28;20232;-63
2023/04/03 05:13:26;;;;;;;18.00;6.07;;;;;;;14.24;100.00;149617.44;5092007;28;20204;-62
2023/04/03 05:15:55;;;;;;;29.43;5.80;;;;;;;14.23;100.00;149613.63;5095134;28;20275;-63
2023/04/03 05:18:22;;;;;;;9.27;4.80;;;;;;;14.37;100.00;149650.47;5095144;28;20686;-62
2023/04/03 05:20:50;;;;;;;45.57;14.03;;;;;;;14.12;100.00;149588.31;5095389;28;20654;-63
2023/04/03 05:23:17;;;;;;;38.43;15.43;;;;;;;14.29;100.00;149628.88;5095045;28;20188;-63
2023/04/03 05:25:45;;;;;;;55.73;17.43;;;;;;;14.30;100.00;149632.63;5095207;28;20623;-60
2023/04/03 05:28:12;;;;;;;19.97;10.90;;;;;;;14.30;100.00;149631.41;5094890;28;20628;-63
2023/04/03 05:30:39;;;;;;;36.13;11.83;;;;;;;14.64;100.00;149718.91;5094584;28;20284;-63
2023/04/03 05:33:07;;;;;;;37.53;11.80;;;;;;;14.63;100.00;149716.41;5094274;28;20239;-63
2023/04/03 05:35:38;;;;;;;10.80;8.03;;;;;;;14.71;100.00;149735.44;5094548;28;20220;-63
2023/04/03 05:38:06;;;;;;;10.37;7.83;;;;;;;14.69;100.00;149729.06;5094517;28;20188;-64
2023/04/03 05:40:35;;;;;;;13.90;9.90;;;;;;;14.65;100.00;149720.19;5094490;28;20188;-64
2023/04/03 05:43:02;;;;;;;16.83;10.10;;;;;;;14.87;100.00;149776.00;5093588;28;20680;-66
2023/04/03 05:45:30;;;;;;;19.17;9.87;;;;;;;15.23;100.00;149866.06;5094617;28;20567;-62
2023/04/03 05:47:57;;;;;;;25.13;9.40;;;;;;;15.77;100.00;150000.63;5094283;28;20275;-63
2023/04/03 05:50:25;;;;;;;13.13;8.50;;;;;;;15.91;100.00;150037.41;5094592;28;20188;-62
2023/04/03 05:52:56;;;;;;;11.77;9.03;;;;;;;16.85;100.00;150273.63;5094025;28;20291;-63
2023/04/03 05:55:26;;;;;;;7.40;6.63;;;;;;;17.21;100.00;150363.84;5093963;28;20216;-64
2023/04/03 05:57:53;;;;;;;10.20;7.00;;;;;;;17.50;100.00;150436.25;5094415;28;20267;-66
2023/04/03 06:00:21;;;;;;;7.70;6.17;;;;;;;17.68;100.00;150482.06;5094432;28;20187;-66
2023/04/03 06:02:48;;;;;;;8.80;6.03;;;;;;;18.91;100.00;150791.09;5093880;28;20184;-67
2023/04/03 06:05:15;;;;;;;12.03;5.20;;;;;;;19.85;100.00;151026.56;5076373;28;20627;-66
2023/04/03 06:07:44;;;;;;;14.13;6.23;;;;;;;20.18;100.00;151110.59;5094623;28;20706;-66
2023/04/03 06:10:12;;;;;;;2.63;2.43;;;;;;;21.13;95.89;151350.09;5093857;28;20184;-65
2023/04/03 06:12:40;;;;;;;3.20;2.10;;;;;;;21.10;90.50;151341.13;5093443;28;20249;-67
2023/04/03 06:15:09;;;;;;;5.03;3.17;;;;;;;20.74;95.80;151250.72;5094277;28;20230;-68
2023/04/03 06:17:37;;;;;;;2.23;2.03;;;;;;;20.19;99.83;151113.13;5094238;28;20242;-65
2023/04/03 06:20:05;;;;;;;2.57;2.23;;;;;;;19.98;100.00;151060.94;5094294;28;20272;-66
2023/04/03 06:22:32;;;;;;;6.30;2.97;;;;;;;19.81;100.00;151016.38;5093896;28;20209;-66
2023/04/03 06:25:00;;;;;;;7.70;4.00;;;;;;;19.68;100.00;150983.28;5092977;28;20215;-66
2023/04/03 06:27:27;;;;;;;2.90;2.03;;;;;;;19.99;100.00;151062.19;5094271;28;20616;-65
2023/04/03 06:29:54;;;;;;;2.37;2.20;;;;;;;20.16;100.00;151105.47;5094243;28;20564;-64
2023/04/03 06:32:21;;;;;;;2.00;1.90;;;;;;;20.29;100.00;151137.28;5093676;28;20246;-66
2023/04/03 06:34:49;;;;;;;2.10;2.00;;;;;;;20.02;100.00;151071.13;5093951;28;20639;-66
2023/04/03 06:37:16;;;;;;;6.30;3.13;;;;;;;20.54;100.00;151199.78;5093465;28;20639;-67
2023/04/03 06:39:45;;;;;;;3.10;2.90;;;;;;;20.63;100.00;151223.94;5093592;28;20270;-66
2023/04/03 06:42:13;;;;;;;2.37;2.10;;;;;;;20.75;97.51;151253.28;5093653;28;20180;-65
2023/04/03 06:44:41;;;;;;;2.03;1.93;;;;;;;21.36;96.02;151408.72;5075687;28;20229;-65
2023/04/03 06:47:09;;;;;;;4.53;2.45;;;;;;;22.32;87.39;151650.97;5093556;28;20230;-66
2023/04/03 06:49:39;;;;;;;4.05;2.17;;;;;;;;;;5094133;28;20176;-66
2023/04/03 06:52:06;;;;;;;3.50;1.80;;;;;;;23.69;76.05;151995.50;5095250;28;20330;-65
2023/04/03 06:54:34;;;;;;;2.80;2.60;;;;;;;24.24;71.98;152134.72;5075776;28;20220;-65
2023/04/03 06:57:01;;;;;;;3.28;2.83;;;;;;;24.34;70.61;152160.25;5072847;28;20250;-64
2023/04/03 06:59:33;;;;;;;1.98;1.70;;;;;;;24.01;70.61;152075.97;5073241;28;20609;-65
2023/04/03 07:02:02;;;;;;;1.67;1.65;;;;;;;24.14;69.51;152110.38;5072816;28;20220;-64
2023/04/03 07:04:30;;;;;;;1.98;1.70;;;;;;;24.35;68.70;152161.53;5072825;28;20222;-64
2023/04/03 07:06:57;;;;;;;2.03;1.67;;;;;;;24.21;68.23;152125.78;5071708;28;20185;-65
2023/04/03 07:09:24;;;;;;;1.80;1.80;;;;;;;24.21;68.18;152127.06;5072898;28;20220;-64
2023/04/03 07:11:51;;;;;;;2.10;1.98;;;;;;;24.08;70.55;152095.09;5086775;28;20278;-64
2023/04/03 07:14:20;;;;;;;2.15;2.00;;;;;;;24.02;69.12;152078.47;5091966;28;20231;-64
2023/04/03 07:16:49;;;;;;;2.10;1.90;;;;;;;22.65;74.25;151733.88;5089988;28;20720;-63
2023/04/03 07:19:18;;;;;;;2.10;2.00;;;;;;;22.12;80.78;151599.97;5073060;28;20291;-64
2023/04/03 07:21:46;;;;;;;2.25;1.67;;;;;;;21.48;84.38;151438.03;5089457;28;20191;-65
2023/04/03 07:24:13;;;;;;;2.05;1.95;;;;;;;21.00;90.00;151316.97;5091723;28;20184;-64
2023/04/03 07:26:40;;;;;;;2.42;2.17;;;;;;;19.99;96.99;151062.19;5091937;28;20193;-62
2023/04/03 07:29:10;;;;;;;3.17;2.93;;;;;;;19.01;100.00;150816.50;5092066;28;20198;-62
2023/04/03 07:31:41;;;;;;;3.10;3.00;;;;;;;19.04;100.00;150822.91;5092464;28;20203;-63
2023/04/03 07:34:09;;;;;;;4.43;3.63;;;;;;;19.17;100.00;150857.25;5093110;28;20709;-63
2023/04/03 07:36:37;;;;;;;3.80;3.60;;;;;;;19.53;100.00;150947.63;5092620;28;20210;-64
2023/04/03 07:39:04;;;;;;;4.27;4.00;;;;;;;19.65;100.00;150975.66;5092395;28;20199;-64
2023/04/03 07:41:31;;;;;;;4.03;3.70;;;;;;;19.67;100.00;150982.00;5092919;28;20245;-64
2023/04/03 07:43:58;;;;;;;8.40;3.30;;;;;;;19.75;100.00;151002.38;5092035;28;20180;-63
2023/04/03 07:46:26;;;;;;;4.70;2.77;;;;;;;19.74;100.00;150999.81;5092190;28;20184;-63
2023/04/03 07:48:53;;;;;;;5.50;3.10;;;;;;;19.81;100.00;151016.38;5091955;28;20218;-64
2023/04/03 07:51:21;;;;;;;3.33;3.13;;;;;;;19.25;100.00;150876.34;5090811;28;20648;-65
2023/04/03 07:53:49;;;;;;;6.10;3.20;;;;;;;19.04;100.00;150822.91;5091935;28;20208;-64
2023/04/03 07:56:18;;;;;;;3.77;3.53;;;;;;;18.97;100.00;150806.34;5091759;28;20192;-64
2023/04/03 07:58:45;;;;;;;5.37;3.40;;;;;;;19.19;100.00;150861.03;5092252;28;20562;-62
2023/04/03 08:01:12;;;;;;;5.90;3.70;;;;;;;19.22;100.00;150867.44;5091698;28;20591;-63
2023/04/03 08:03:39;;;;;;;3.47;3.27;;;;;;;19.20;100.00;150863.59;5092209;28;20234;-63
2023/04/03 08:06:08;;;;;;;4.60;4.30;;;;;;;19.26;100.00;150877.63;5090573;28;20195;-64
2023/04/03 08:08:37;;;;;;;5.77;4.10;;;;;;;19.53;100.00;150946.34;5090894;28;20219;-64
2023/04/03 08:11:05;;;;;;;3.67;3.47;;;;;;;19.75;100.00;151002.38;5090637;28;20219;-63
2023/04/03 08:13:34;;;;;;;3.40;3.10;;;;;;;19.58;100.00;150960.38;5091805;28;20306;-63
2023/04/03 08:16:09;;;;;;;50.00;6.40;;;;;;;19.76;100.00;151004.91;5091207;28;20200;-62
2023/04/03 08:18:36;;;;;;;7.77;4.47;;;;;;;19.97;100.00;151057.09;5088916;28;20249;-62
2023/04/03 08:21:07;;;;;;;7.20;3.60;;;;;;;19.91;100.00;151041.81;5089670;28;20220;-63
2023/04/03 08:23:34;;;;;;;3.93;2.90;;;;;;;20.15;100.00;151101.69;5080148;28;20583;-64
2023/04/03 08:26:09;;;;;;;3.77;3.50;;;;;;;19.72;100.00;150994.75;5071284;28;20180;-64
2023/04/03 08:28:36;;;;;;;8.47;4.60;;;;;;;19.35;100.00;150900.53;5071325;28;20233;-62
2023/04/03 08:31:07;;;;;;;4.20;3.90;;;;;;;19.08;100.00;150833.06;5071472;28;20196;-62
2023/04/03 08:33:35;;;;;;;6.47;4.70;;;;;;;18.98;100.00;150807.63;5078968;28;20242;-62
2023/04/03 08:36:04;;;;;;;4.13;3.73;;;;;;;18.90;100.00;150788.53;5091578;28;20669;-62
2023/04/03 08:38:31;;;;;;;5.13;4.10;;;;;;;18.88;100.00;150782.19;5088082;28;20564;-62
2023/04/03 08:41:05;;;;;;;4.23;4.00;;;;;;;18.66;100.00;150727.50;5088618;28;20559;-63
2023/04/03 08:43:44;;;;;;;6.60;4.90;;;;;;;18.66;100.00;150728.78;5091115;28;20237;-63
2023/04/03 08:46:16;;;;;;;4.47;4.17;;;;;;;18.65;100.00;150724.94;5090241;28;20206;-63
2023/04/03 08:48:44;;;;;;;4.73;4.43;;;;;;;19.03;100.00;150820.34;5091920;28;20554;-64
2023/04/03 08:51:15;;;;;;;4.80;4.53;;;;;;;18.77;100.00;150755.47;5093961;28;20291;-63
2023/04/03 08:53:47;;;;;;;10.43;5.10;;;;;;;18.77;100.00;150754.19;5095022;28;20196;-63
2023/04/03 08:56:20;;;;;;;8.83;4.97;;;;;;;18.66;100.00;150728.78;5094986;28;20223;-62
2023/04/03 08:58:52;;;;;;;5.30;4.80;;;;;;;18.48;100.00;150681.66;5095181;28;20195;-64
2023/04/03 09:01:24;;;;;;;5.57;5.17;;;;;;;18.56;100.00;150703.31;5095438;28;20207;-64
2023/04/03 09:03:51;;;;;;;5.20;4.70;;;;;;;18.56;100.00;150702.03;5095344;28;20196;-64
2023/04/03 09:06:22;;;;;;;7.90;5.33;;;;;;;18.57;100.00;150704.59;5095325;28;20267;-64
2023/04/03 09:08:58;;;;;;;6.10;5.50;;;;;;;18.31;100.00;150639.69;5095414;28;20188;-63
2023/04/03 09:11:28;;;;;;;6.03;5.53;;;;;;;18.38;100.00;150657.47;5094972;28;20769;-63
2023/04/03 09:14:02;;;;;;;5.50;5.20;;;;;;;18.12;100.00;150591.41;5095781;28;20208;-62
2023/04/03 09:16:41;;;;;;;5.30;5.10;;;;;;;17.98;100.00;150557.06;5095436;28;20180;-62
2023/04/03 09:19:20;;;;;;;4.73;4.43;;;;;;;17.84;100.00;150521.47;5094922;28;20191;-66
2023/04/03 09:21:47;;;;;;;5.67;5.07;;;;;;;17.88;100.00;150530.34;5095376;28;20644;-64
2023/04/03 09:24:17;;;;;;;3.87;3.73;;;;;;;17.27;100.00;150379.06;5094737;28;20577;-63
2023/04/03 09:26:50;;;;;;;5.10;4.70;;;;;;;17.16;100.00;150349.84;5094341;28;20184;-63
2023/04/03 09:29:22;;;;;;;5.53;5.13;;;;;;;16.87;100.00;150278.72;5095399;28;20248;-60
2023/04/03 09:31:52;;;;;;;7.30;4.67;;;;;;;17.02;100.00;150315.53;5094928;28;20218;-60
2023/04/03 09:34:26;;;;;;;5.33;5.03;;;;;;;17.06;100.00;150324.47;5094660;28;20734;-63
2023/04/03 09:36:54;;;;;;;5.80;5.40;;;;;;;16.79;100.00;150258.41;5094526;28;20263;-60
2023/04/03 09:39:24;;;;;;;5.90;5.40;;;;;;;17.02;100.00;150315.53;5074449;28;20185;-60
2023/04/03 09:42:01;;;;;;;6.07;5.37;;;;;;;17.06;100.00;150324.47;5074472;28;20528;-60
2023/04/03 09:44:31;;;;;;;6.53;6.07;;;;;;;16.95;100.00;150296.50;5091827;28;20195;-59
2023/04/03 09:46:59;;;;;;;7.17;6.17;;;;;;;16.68;100.00;150229.16;5093945;28;20192;-60
2023/04/03 09:49:27;;;;;;;6.93;6.43;;;;;;;16.33;100.00;150141.53;5094168;28;20199;-62
2023/04/03 09:51:54;;;;;;;7.20;6.67;;;;;;;16.13;100.00;150091.97;5093891;28;20268;-58
2023/04/03 09:54:40;;;;;;;8.13;5.93;;;;;;;15.89;100.00;150032.34;5094624;28;20554;-60
2023/04/03 09:57:11;;;;;;;7.13;6.50;;;;;;;15.66;100.00;149973.94;5095217;28;20184;-61
2023/04/03 09:59:46;;;;;;;10.40;6.83;;;;;;;15.34;100.00;149893.97;5093412;28;20560;-61
2023/04/03 10:02:32;;;;;;;10.23;6.83;;;;;;;14.91;100.00;149786.13;5093993;28;20642;-62
2023/04/03 10:04:59;;;;;;;9.20;6.60;;;;;;;14.94;100.00;149793.75;5094271;28;20188;-61
2023/04/03 10:07:32;;;;;;;6.20;5.90;;;;;;;14.85;100.00;149770.91;5093863;28;20184;-60
2023/04/03 10:10:01;;;;;;;8.23;6.90;;;;;;;14.61;100.00;149711.31;5093930;28;20270;-61
2023/04/03 10:12:28;;;;;;;7.13;6.63;;;;;;;14.76;100.00;149748.13;5093900;28;20231;-62
2023/04/03 10:14:58;;;;;;;11.73;7.00;;;;;;;14.96;100.00;149797.56;5094394;28;20212;-63
2023/04/03 10:17:38;;;;;;;6.70;6.10;;;;;;;14.79;100.00;149754.44;5094121;28;20699;-61
2023/04/03 10:20:20;;;;;;;7.30;6.90;;;;;;;14.97;100.00;149800.09;5094075;28;20191;-61
2023/04/03 10:22:57;;;;;;;7.67;7.20;;;;;;;14.75;100.00;149745.56;5093904;28;20199;-61
2023/04/03 10:25:32;;;;;;;7.00;6.43;;;;;;;15.02;100.00;149814.03;5094042;28;20211;-62
2023/04/03 10:28:02;;;;;;;6.43;6.03;;;;;;;15.11;100.00;149834.38;5093983;28;20634;-62
2023/04/03 10:30:38;;;;;;;7.03;6.47;;;;;;;15.16;100.00;149847.00;5093994;28;20624;-62
2023/04/03 10:33:30;;;;;;;7.20;6.50;;;;;;;15.50;100.00;149934.63;5093876;28;20244;-60
2023/04/03 10:36:11;;;;;;;6.60;6.03;;;;;;;15.66;100.00;149973.94;5091052;28;20695;-61
2023/04/03 10:38:51;;;;;;;6.33;5.77;;;;;;;15.79;100.00;150005.66;5093540;28;20188;-61
2023/04/03 10:41:25;;;;;;;5.53;5.23;;;;;;;15.98;100.00;150055.19;5093481;28;20279;-61
2023/04/03 10:44:04;;;;;;;5.63;5.30;;;;;;;16.00;100.00;150060.25;5093794;28;20539;-61
2023/04/03 10:46:39;;;;;;;4.70;4.30;;;;;;;15.88;100.00;150029.78;5093424;28;20226;-61
2023/04/03 10:49:20;;;;;;;5.83;5.27;;;;;;;15.92;100.00;150039.94;5093664;28;20610;-61
2023/04/03 10:51:51;;;;;;;6.27;5.77;;;;;;;16.09;100.00;150080.56;5093171;28;20184;-63
2023/04/03 10:54:25;;;;;;;5.10;4.90;;;;;;;16.31;100.00;150136.44;5093541;28;20626;-60
2023/04/03 10:56:57;;;;;;;5.10;4.90;;;;;;;16.79;100.00;150258.41;5093822;28;20226;-61
2023/04/03 10:59:29;;;;;;;4.63;4.33;;;;;;;17.68;100.00;150480.78;5093519;28;20614;-62
2023/04/03 11:02:02;;;;;;;7.47;5.27;;;;;;;18.83;100.00;150769.47;5093344;28;20180;-62
2023/04/03 11:04:35;;;;;;;4.60;4.40;;;;;;;19.15;100.00;150852.16;5093332;28;20176;-62
2023/04/03 11:07:05;;;;;;;6.43;4.97;;;;;;;18.47;100.00;150680.38;5093588;28;20559;-62
2023/04/03 11:09:40;;;;;;;5.53;5.13;;;;;;;17.58;100.00;150455.34;5093249;28;20271;-61
2023/04/03 11:12:17;;;;;;;4.90;3.80;;;;;;;16.88;100.00;150280.00;5092448;28;20770;-60
2023/04/03 11:14:44;;;;;;;4.67;4.23;;;;;;;16.37;100.00;150151.69;5093085;28;20822;-61
2023/04/03 11:17:28;;;;;;;5.83;4.50;;;;;;;16.09;100.00;150081.81;5092954;28;20245;-62
2023/04/03 11:20:06;;;;;;;4.17;3.87;;;;;;;15.85;100.00;150020.91;5092924;28;20249;-61
2023/04/03 11:22:37;;;;;;;4.87;4.47;;;;;;;15.85;100.00;150022.19;5092973;28;20203;-61
2023/04/03 11:25:07;;;;;;;4.20;4.00;;;;;;;15.68;100.00;149977.75;5092665;28;20207;-62
2023/04/03 11:27:41;;;;;;;5.30;5.00;;;;;;;15.65;100.00;149971.44;5092998;28;20716;-63
2023/04/03 11:30:17;;;;;;;4.17;3.97;;;;;;;15.59;100.00;149956.19;5092877;28;20647;-62